RAMO2: Caney River, Ramona, OK

                                SHEF ID:       RAMO2     Caney River near Ramona, OK
STATION TYPE:
Regulating: Stage = 26.00, Flow = 15426

PRECIP STAGE STAGE(2) RIV-FLOW VOLTAGE BAT-LOAD
in ft ft cfs volt volt
Ccp-Rev Ccp-Rev Ccp-Rev Ccp-Rev Ccp-Rev Ccp-Rev
(America/Chicago)
04/27 00:00 0.00 6.64 99999.00 2162 12.90 ----
04/27 01:00 0.00 6.61 99999.00 2145 12.90 ----
04/27 02:00 0.00 6.54 99999.00 2104 12.90 ----
04/27 03:00 0.00 6.48 99999.00 2069 12.90 ----
04/27 04:00 0.00 6.42 99999.00 2035 12.80 ----
04/27 05:00 0.00 6.37 99999.00 2006 12.80 ----
04/27 06:00 0.00 6.34 99999.00 1989 12.80 ----
04/27 07:00 0.00 6.30 99999.00 1966 12.80 ----
04/27 08:00 0.00 6.25 99999.00 1937 12.90 ----
04/27 09:00 0.00 6.19 99999.00 1903 13.50 ----
04/27 10:00 0.00 6.17 99999.00 1891 13.50 ----
04/27 11:00 0.00 6.12 99999.00 1863 13.60 ----
04/27 12:00 0.00 6.07 99999.00 1834 13.60 ----
04/27 13:00 0.00 6.05 99999.00 1823 13.60 ----
04/27 14:00 0.00 6.05 99999.00 1823 13.60 ----
04/27 15:00 0.00 6.01 99999.00 1800 13.60 ----
04/27 16:00 0.00 6.02 99999.00 1805 13.60 ----
04/27 17:00 0.00 6.01 99999.00 1800 13.50 ----
04/27 18:00 0.00 6.06 99999.00 1828 13.60 ----
04/27 19:00 0.00 6.06 99999.00 1828 13.20 ----
04/27 20:00 0.00 6.12 99999.00 1863 13.00 ----
04/27 21:00 0.00 6.17 99999.00 1891 12.90 ----
04/27 22:00 0.00 6.21 99999.00 1914 12.90 ----
04/27 23:00 0.00 6.28 99999.00 1954 12.90 ----
Data processed at Tue 28Apr2026 04:01 GMT

NOTICE: If you are parsing this page

Please convert to using our Data API. Starting early 2026 we will be migrating to: https://water.usace.army.mil with modern pages rendered in JavaScript. When this migration completes you will no longer be able to scrape this page! CWMSDataAPI (CDA)

Timeseries IDs (TSIDs)

TSIDs used from left to right in the data table
RAMO.Precip-Inc.Total.1Hour.1Hour.Ccp-Rev
RAMO.Stage.Inst.1Hour.0.Ccp-Rev
RAMO.Stage-Alt.Inst.1Hour.0.Ccp-Rev
RAMO.Flow.Inst.1Hour.0.Ccp-Rev
RAMO.Volt-Battery.Inst.1Hour.0.Ccp-Rev
RAMO.Volt-Battery Load.Inst.1Hour.0.Ccp-Rev

                            

All information presented herein is the property of the government of the United States of America and may be revised or deleted at any time without prior notice. Dissemination of this information without the expressed written consent of the Public Affairs Office, Tulsa District U.S. Army Corps of Engineers is strictly prohibited. These data are gathered electronically and, as presented, have NOT undergone any form of quality control. These data are NOT guaranteed to be valid or correct.